CYHK

Gjoa Haven Airport

Gjoa Haven, Canada
METAR CYHK 250032Z AUTO 30011KT 2 1/2SM -SN BKN045 OVC055 M18/M20 A2987 RMK SLP123
Observed Flight Rules
Apr-25 @ 00:32 UTC (13 minutes ago) Instrument Flight Rules
Wind Visibility Clouds Conditions
300° at 11 knots 2 1/2 miles
  • Broken at 4,500' AGL
  • Overcast at 5,500' AGL
  • Light Snow
Temperatures Readings
Current -18°C / -0°F
Dewpoint -20°C / -4°F
Humidity 84%
Altimeter 29.87" Hg
Pressure 1012.3 hPa
Elevation 46
METAR CYHK 250032Z AUTO 30011KT 2 1/2SM -SN BKN045 OVC055 M18/M20 A2987 RMK SLP123
Observed Flight Rules
Apr-25 @ 00:32 UTC
(13 minutes ago)
IFR
Wind Visibility
300° at 11 knots 2 1/2 miles
Clouds
  • Broken at 4,500' AGL
  • Overcast at 5,500' AGL
Conditions
  • Light Snow
Temperature Dewpoint
-18°C / -0°F -20°C / -4°F
Humidity Altimeter Pressure
84% 29.87" Hg 1012.3 hPa